Talmar, Pennsylvania
Current Conditions -  °F | °C
As of 4:15 PM on Monday 22 Dec 2014 (Local Time) from KHZL Reporting Station
Overcast Overcast  
Wind Chill: 34°   Ceiling: 7500
Heat Index: 34°   Visibility: 10mi
Dew Point: 30°   Wind: 3mph
Humidity: 87%   Direction: 90°E
Pressure: 30.17"   Gusts: NA
Location:  41.2534°N, 76.3299°W
Report Text: KHZL 222115Z AUTO 09003KT 10SM BKN075 OVC085 01/M01 A3017 RMK AO2
Loading
Personal Weather Stations






























Interactive Weather Map New forecast layout! Learn more

10-Day Weather Forecast

Advertisements
Track Severe Weather on mobile